createdAt,value
2018-04-23T00:00:58.271Z,20.71
2018-04-23T00:01:58.364Z,20.83
2018-04-23T00:02:58.362Z,20.74
2018-04-23T00:03:58.237Z,20.71
2018-04-23T00:04:58.354Z,20.82
2018-04-23T00:05:58.467Z,20.74
2018-04-23T00:06:58.326Z,20.71
2018-04-23T00:07:58.395Z,20.83
2018-04-23T00:08:58.424Z,20.74
2018-04-23T00:09:58.347Z,20.71
2018-04-23T00:10:58.191Z,20.83
2018-04-23T00:11:58.245Z,20.74
2018-04-23T00:12:58.336Z,20.7
2018-04-23T00:13:58.332Z,20.81
2018-04-23T00:14:58.490Z,20.72
2018-04-23T00:15:58.379Z,20.7
2018-04-23T00:16:58.454Z,20.81
2018-04-23T00:17:58.500Z,20.74
2018-04-23T00:18:58.313Z,20.69
2018-04-23T00:19:58.284Z,20.81
2018-04-23T00:20:58.248Z,20.72
2018-04-23T00:21:58.253Z,20.69
2018-04-23T00:22:58.556Z,20.8
2018-04-23T00:23:58.390Z,20.72
2018-04-23T00:24:58.293Z,20.7
2018-04-23T00:25:58.229Z,20.81
2018-04-23T00:26:58.356Z,20.71
2018-04-23T00:27:58.447Z,20.69
2018-04-23T00:28:58.401Z,20.8
2018-04-23T00:29:58.282Z,20.72
2018-04-23T00:30:58.282Z,20.7
2018-04-23T00:31:58.634Z,20.8
2018-04-23T00:32:58.324Z,20.71
2018-04-23T00:33:58.314Z,20.68
2018-04-23T00:34:58.427Z,20.79
2018-04-23T00:35:59.957Z,20.71
2018-04-23T00:36:58.291Z,20.68
2018-04-23T00:37:58.520Z,20.8
2018-04-23T00:38:58.446Z,20.71
2018-04-23T00:39:58.435Z,20.67
2018-04-23T00:40:58.375Z,20.78
2018-04-23T00:41:58.280Z,20.71
2018-04-23T00:42:58.368Z,20.67
2018-04-23T00:43:58.375Z,20.78
2018-04-23T00:44:58.370Z,20.7
2018-04-23T00:45:58.230Z,20.66
2018-04-23T00:46:58.311Z,20.77
2018-04-23T00:47:58.247Z,20.69
2018-04-23T00:48:58.182Z,20.66
2018-04-23T00:49:58.366Z,20.77
2018-04-23T00:50:58.403Z,20.7
2018-04-23T00:51:58.321Z,20.66
2018-04-23T00:52:58.426Z,20.77
2018-04-23T00:53:58.567Z,20.69
2018-04-23T00:54:58.190Z,20.65
2018-04-23T00:55:58.379Z,20.77
2018-04-23T00:56:58.469Z,20.69
2018-04-23T00:57:58.409Z,20.65
2018-04-23T00:58:58.313Z,20.77
2018-04-23T00:59:58.243Z,20.69
2018-04-23T01:00:58.394Z,20.65
2018-04-23T01:01:58.397Z,20.77
2018-04-23T01:02:58.376Z,20.67
2018-04-23T01:03:58.336Z,20.65
2018-04-23T01:04:58.288Z,20.77
2018-04-23T01:05:58.269Z,20.67
2018-04-23T01:06:58.427Z,20.65
2018-04-23T01:07:58.224Z,20.76
2018-04-23T01:08:58.334Z,20.67
2018-04-23T01:09:58.164Z,20.65
2018-04-23T01:10:58.312Z,20.76
2018-04-23T01:11:58.238Z,20.66
2018-04-23T01:12:58.348Z,20.64
2018-04-23T01:13:58.020Z,20.76
2018-04-23T01:14:58.281Z,20.65
2018-04-23T01:15:58.392Z,20.64
2018-04-23T01:16:58.215Z,20.77
2018-04-23T01:17:58.361Z,20.66
2018-04-23T01:18:58.264Z,20.64
2018-04-23T01:19:58.319Z,20.75
2018-04-23T01:20:58.381Z,20.66
2018-04-23T01:21:58.207Z,20.63
2018-04-23T01:22:58.447Z,20.75
2018-04-23T01:23:58.213Z,20.65
2018-04-23T01:24:58.209Z,20.63
2018-04-23T01:25:58.362Z,20.75
2018-04-23T01:26:58.317Z,20.65
2018-04-23T01:27:58.256Z,20.62
2018-04-23T01:28:58.561Z,20.74
2018-04-23T01:29:58.240Z,20.65
2018-04-23T01:30:58.532Z,20.63
2018-04-23T01:31:58.356Z,20.73
2018-04-23T01:32:58.224Z,20.65
2018-04-23T01:33:58.371Z,20.62
2018-04-23T01:34:58.216Z,20.73
2018-04-23T01:35:58.496Z,20.64
2018-04-23T01:36:58.316Z,20.61
2018-04-23T01:37:58.382Z,20.72
2018-04-23T01:38:58.039Z,20.64
2018-04-23T01:39:58.315Z,20.61
2018-04-23T01:40:58.339Z,20.72
2018-04-23T01:41:58.356Z,20.63
2018-04-23T01:42:58.332Z,20.6
2018-04-23T01:43:58.276Z,20.72
2018-04-23T01:44:58.226Z,20.64
2018-04-23T01:45:58.345Z,20.6
2018-04-23T01:46:58.257Z,20.71
2018-04-23T01:47:58.342Z,20.63
2018-04-23T01:48:58.335Z,20.6
2018-04-23T01:49:58.362Z,20.72
2018-04-23T01:50:58.305Z,20.63
2018-04-23T01:51:58.305Z,20.59
2018-04-23T01:52:58.139Z,20.71
2018-04-23T01:53:58.258Z,20.63
2018-04-23T01:54:58.398Z,20.6
2018-04-23T01:55:58.382Z,20.71
2018-04-23T01:56:58.233Z,20.61
2018-04-23T01:57:58.309Z,20.59
2018-04-23T01:58:58.119Z,20.7
2018-04-23T01:59:58.338Z,20.61
2018-04-23T02:00:58.295Z,20.59
2018-04-23T02:01:58.295Z,20.7
2018-04-23T02:02:58.241Z,20.6
2018-04-23T02:03:58.226Z,20.59
2018-04-23T02:04:58.272Z,20.71
2018-04-23T02:05:58.346Z,20.6
2018-04-23T02:06:58.177Z,20.59
2018-04-23T02:07:58.243Z,20.7
2018-04-23T02:08:58.193Z,20.6
2018-04-23T02:09:58.280Z,20.59
2018-04-23T02:10:58.370Z,20.69
2018-04-23T02:11:58.452Z,20.6
2018-04-23T02:12:58.297Z,20.58
2018-04-23T02:13:58.176Z,20.69
2018-04-23T02:14:58.309Z,20.59
2018-04-23T02:15:58.239Z,20.57
2018-04-23T02:16:58.294Z,20.69
2018-04-23T02:17:58.318Z,20.59
2018-04-23T02:18:58.319Z,20.57
2018-04-23T02:19:58.622Z,20.69
2018-04-23T02:20:58.414Z,20.59
2018-04-23T02:21:58.379Z,20.57
2018-04-23T02:22:58.407Z,20.69
2018-04-23T02:23:58.232Z,20.59
2018-04-23T02:24:58.321Z,20.58
2018-04-23T02:25:58.336Z,20.67
2018-04-23T02:26:58.294Z,20.59
2018-04-23T02:27:58.476Z,20.57
2018-04-23T02:28:59.256Z,20.68
2018-04-23T02:29:58.241Z,20.59
2018-04-23T02:30:58.343Z,20.57
2018-04-23T02:31:58.352Z,20.68
2018-04-23T02:32:58.334Z,20.59
2018-04-23T02:33:58.453Z,20.56
2018-04-23T02:34:58.105Z,20.67
2018-04-23T02:35:58.334Z,20.59
2018-04-23T02:36:58.400Z,20.56
2018-04-23T02:37:58.455Z,20.67
2018-04-23T02:38:58.175Z,20.58
2018-04-23T02:39:58.217Z,20.56
2018-04-23T02:40:58.172Z,20.67
2018-04-23T02:41:58.169Z,20.58
2018-04-23T02:42:58.303Z,20.56
2018-04-23T02:43:58.372Z,20.67
2018-04-23T02:44:58.395Z,20.59
2018-04-23T02:45:58.350Z,20.55
2018-04-23T02:46:58.252Z,20.66
2018-04-23T02:47:58.390Z,20.58
2018-04-23T02:48:58.286Z,20.55
2018-04-23T02:49:58.276Z,20.66
2018-04-23T02:50:58.402Z,20.58
2018-04-23T02:51:58.431Z,20.55
2018-04-23T02:52:58.400Z,20.66
2018-04-23T02:53:58.333Z,20.58
2018-04-23T02:54:58.360Z,20.55
2018-04-23T02:55:58.232Z,20.65
2018-04-23T02:56:58.174Z,20.58
2018-04-23T02:57:58.316Z,20.55
2018-04-23T02:58:58.259Z,20.65
2018-04-23T02:59:58.513Z,20.58
2018-04-23T03:00:58.286Z,20.55
2018-04-23T03:01:58.332Z,20.65
2018-04-23T03:02:58.210Z,20.58
2018-04-23T03:03:58.287Z,20.55
2018-04-23T03:04:58.211Z,20.65
2018-04-23T03:05:58.403Z,20.57
2018-04-23T03:06:58.183Z,20.54
2018-04-23T03:07:58.227Z,20.65
2018-04-23T03:08:58.347Z,20.57
2018-04-23T03:09:58.296Z,20.55
2018-04-23T03:10:58.262Z,20.65
2018-04-23T03:11:58.353Z,20.56
2018-04-23T03:12:58.272Z,20.54
2018-04-23T03:13:58.518Z,20.65
2018-04-23T03:14:58.250Z,20.56
2018-04-23T03:15:58.241Z,20.54
2018-04-23T03:16:58.134Z,20.65
2018-04-23T03:17:58.304Z,20.56
2018-04-23T03:18:58.353Z,20.53
2018-04-23T03:19:58.295Z,20.65
2018-04-23T03:20:58.329Z,20.56
2018-04-23T03:21:58.163Z,20.54
2018-04-23T03:22:58.227Z,20.65
2018-04-23T03:23:58.349Z,20.56
2018-04-23T03:24:58.344Z,20.53
2018-04-23T03:25:58.366Z,20.64
2018-04-23T03:26:58.288Z,20.55
2018-04-23T03:27:58.307Z,20.53
2018-04-23T03:28:58.332Z,20.64
2018-04-23T03:29:58.272Z,20.56
2018-04-23T03:30:58.478Z,20.53
2018-04-23T03:31:58.189Z,20.65
2018-04-23T03:32:58.280Z,20.56
2018-04-23T03:33:58.167Z,20.53
2018-04-23T03:34:58.306Z,20.65
2018-04-23T03:35:58.234Z,20.56
2018-04-23T03:36:58.318Z,20.53
2018-04-23T03:37:58.118Z,20.64
2018-04-23T03:38:58.232Z,20.54
2018-04-23T03:39:58.271Z,20.53
2018-04-23T03:40:58.237Z,20.63
2018-04-23T03:41:58.439Z,20.54
2018-04-23T03:42:58.241Z,20.52
2018-04-23T03:43:58.324Z,20.63
2018-04-23T03:44:58.081Z,20.54
2018-04-23T03:45:58.284Z,20.53
2018-04-23T03:46:58.219Z,20.64
2018-04-23T03:47:58.172Z,20.54
2018-04-23T03:48:58.304Z,20.52
2018-04-23T03:49:58.169Z,20.63
2018-04-23T03:50:58.151Z,20.53
2018-04-23T03:51:58.271Z,20.52
2018-04-23T03:52:58.261Z,20.64
2018-04-23T03:53:58.223Z,20.54
2018-04-23T03:54:58.314Z,20.52
2018-04-23T03:55:58.143Z,20.63
2018-04-23T03:56:58.114Z,20.54
2018-04-23T03:57:58.213Z,20.52
2018-04-23T03:58:58.224Z,20.62
2018-04-23T03:59:58.288Z,20.53
2018-04-23T04:00:58.317Z,20.51
2018-04-23T04:01:58.304Z,20.62
2018-04-23T04:02:58.160Z,20.53
2018-04-23T04:03:58.300Z,20.51
2018-04-23T04:04:58.589Z,20.61
2018-04-23T04:05:58.186Z,20.53
2018-04-23T04:06:58.193Z,20.5
2018-04-23T04:07:58.240Z,20.62
2018-04-23T04:08:58.224Z,20.53
2018-04-23T04:09:58.350Z,20.51
2018-04-23T04:10:58.339Z,20.61
2018-04-23T04:11:58.230Z,20.53
2018-04-23T04:12:58.233Z,20.51
2018-04-23T04:13:58.213Z,20.62
2018-04-23T04:14:58.291Z,20.53
2018-04-23T04:15:58.480Z,20.51
2018-04-23T04:16:58.821Z,20.61
2018-04-23T04:17:58.191Z,20.53
2018-04-23T04:18:58.162Z,20.51
2018-04-23T04:19:58.217Z,20.61
2018-04-23T04:20:58.244Z,20.53
2018-04-23T04:21:58.168Z,20.5
2018-04-23T04:22:58.369Z,20.6
2018-04-23T04:23:58.144Z,20.53
2018-04-23T04:24:58.289Z,20.5
2018-04-23T04:25:58.194Z,20.61
2018-04-23T04:26:58.130Z,20.53
2018-04-23T04:27:58.238Z,20.5
2018-04-23T04:28:58.384Z,20.61
2018-04-23T04:29:58.404Z,20.53
2018-04-23T04:30:58.215Z,20.5
2018-04-23T04:31:58.201Z,20.6
2018-04-23T04:32:58.334Z,20.52
2018-04-23T04:33:58.226Z,20.5
2018-04-23T04:34:58.103Z,20.61
2018-04-23T04:35:58.487Z,20.52
2018-04-23T04:36:58.302Z,20.5
2018-04-23T04:37:58.260Z,20.6
2018-04-23T04:38:58.314Z,20.53
2018-04-23T04:39:58.349Z,20.5
2018-04-23T04:40:58.264Z,20.61
2018-04-23T04:41:58.223Z,20.53
2018-04-23T04:42:58.150Z,20.5
2018-04-23T04:43:58.610Z,20.6
2018-04-23T04:44:58.241Z,20.52
2018-04-23T04:45:58.165Z,20.49
2018-04-23T04:46:57.959Z,20.61
2018-04-23T04:47:58.155Z,20.53
2018-04-23T04:48:58.151Z,20.51
2018-04-23T04:49:58.120Z,20.6
2018-04-23T04:50:58.285Z,20.52
2018-04-23T04:51:58.181Z,20.52
2018-04-23T04:52:58.350Z,20.62
2018-04-23T04:53:58.335Z,20.55
2018-04-23T04:54:58.193Z,20.55
2018-04-23T04:55:58.228Z,20.64
2018-04-23T04:56:58.140Z,20.56
2018-04-23T04:57:58.211Z,20.53
2018-04-23T04:58:58.340Z,20.64
2018-04-23T04:59:58.270Z,20.54
2018-04-23T05:00:58.384Z,20.53
2018-04-23T05:01:58.213Z,20.63
2018-04-23T05:02:58.387Z,20.53
2018-04-23T05:03:58.331Z,20.51
2018-04-23T05:04:58.319Z,20.62
2018-04-23T05:05:58.607Z,20.53
2018-04-23T05:06:58.272Z,20.51
2018-04-23T05:07:58.154Z,20.63
2018-04-23T05:08:58.088Z,20.53
2018-04-23T05:09:58.207Z,20.52
2018-04-23T05:10:58.391Z,20.62
2018-04-23T05:11:58.330Z,20.53
2018-04-23T05:12:58.328Z,20.51
2018-04-23T05:13:58.413Z,20.64
2018-04-23T05:14:58.092Z,20.53
2018-04-23T05:15:58.150Z,20.51
2018-04-23T05:16:58.145Z,20.63
2018-04-23T05:17:58.181Z,20.53
2018-04-23T05:18:58.192Z,20.52
2018-04-23T05:19:58.264Z,20.62
2018-04-23T05:20:58.372Z,20.53
2018-04-23T05:21:58.302Z,20.51
2018-04-23T05:22:58.100Z,20.63
2018-04-23T05:23:58.201Z,20.53
2018-04-23T05:24:58.103Z,20.51
2018-04-23T05:25:58.344Z,20.62
2018-04-23T05:26:58.183Z,20.54
2018-04-23T05:27:58.136Z,20.52
2018-04-23T05:28:58.234Z,20.62
2018-04-23T05:29:58.421Z,20.53
2018-04-23T05:30:58.234Z,20.51
2018-04-23T05:31:58.361Z,20.61
2018-04-23T05:32:58.291Z,20.53
2018-04-23T05:33:58.121Z,20.51
2018-04-23T05:34:58.148Z,20.62
2018-04-23T05:35:58.069Z,20.53
2018-04-23T05:36:58.302Z,20.52
2018-04-23T05:37:58.150Z,20.62
2018-04-23T05:38:58.160Z,20.53
2018-04-23T05:39:58.234Z,20.51
2018-04-23T05:40:58.221Z,20.62
2018-04-23T05:41:58.259Z,20.53
2018-04-23T05:42:58.201Z,20.52
2018-04-23T05:43:58.532Z,20.63
2018-04-23T05:44:58.194Z,20.54
2018-04-23T05:45:58.260Z,20.51
2018-04-23T05:46:58.254Z,20.63
2018-04-23T05:47:58.607Z,20.54
2018-04-23T05:48:58.343Z,20.52
2018-04-23T05:49:57.994Z,20.62
2018-04-23T05:50:58.207Z,20.53
2018-04-23T05:51:58.142Z,20.51
2018-04-23T05:52:58.108Z,20.61
2018-04-23T05:53:58.111Z,20.53
2018-04-23T05:54:58.442Z,20.51
2018-04-23T05:55:58.084Z,20.62
2018-04-23T05:56:58.269Z,20.53
2018-04-23T05:57:58.178Z,20.52
2018-04-23T05:58:58.162Z,20.62
2018-04-23T05:59:58.274Z,20.54
2018-04-23T06:00:58.101Z,20.52
2018-04-23T06:01:58.173Z,20.62
2018-04-23T06:02:58.106Z,20.53
2018-04-23T06:03:58.094Z,20.51
2018-04-23T06:04:58.297Z,20.62
2018-04-23T06:05:58.325Z,20.54
2018-04-23T06:06:58.094Z,20.52
2018-04-23T06:07:58.308Z,20.63
2018-04-23T06:08:58.233Z,20.54
2018-04-23T06:09:58.220Z,20.52
2018-04-23T06:10:58.182Z,20.62
2018-04-23T06:11:58.246Z,20.53
2018-04-23T06:12:58.208Z,20.52
2018-04-23T06:13:58.200Z,20.63
2018-04-23T06:14:58.045Z,20.53
2018-04-23T06:15:58.210Z,20.52
2018-04-23T06:16:58.304Z,20.63
2018-04-23T06:17:58.273Z,20.54
2018-04-23T06:18:58.236Z,20.45
2018-04-23T06:19:58.156Z,20.6
2018-04-23T06:20:58.124Z,20.59
2018-04-23T06:21:58.200Z,20.6
2018-04-23T06:22:58.244Z,20.77
2018-04-23T06:23:58.093Z,20.71
2018-04-23T06:24:58.106Z,20.69
2018-04-23T06:25:58.225Z,20.81
2018-04-23T06:26:58.159Z,20.75
2018-04-23T06:27:58.296Z,20.72
2018-04-23T06:28:58.241Z,20.82
2018-04-23T06:29:58.336Z,20.77
2018-04-23T06:30:58.224Z,20.72
2018-04-23T06:31:58.321Z,20.82
2018-04-23T06:32:58.220Z,20.79
2018-04-23T06:33:58.166Z,20.79
2018-04-23T06:34:58.281Z,20.88
2018-04-23T06:35:58.316Z,20.75
2018-04-23T06:36:58.352Z,20.74
2018-04-23T06:37:58.121Z,20.89
2018-04-23T06:38:58.105Z,20.83
2018-04-23T06:39:58.079Z,20.74
2018-04-23T06:40:58.183Z,20.91
2018-04-23T06:41:58.235Z,20.81
2018-04-23T06:42:58.430Z,20.82
2018-04-23T06:43:58.273Z,20.95
2018-04-23T06:44:58.279Z,20.79
2018-04-23T06:45:58.051Z,20.74
2018-04-23T06:46:58.248Z,20.88
2018-04-23T06:47:58.280Z,20.71
2018-04-23T06:48:58.330Z,20.73
2018-04-23T06:49:58.148Z,20.95
2018-04-23T06:50:58.122Z,20.86
2018-04-23T06:51:58.180Z,20.83
2018-04-23T06:52:58.151Z,20.98
2018-04-23T06:53:58.250Z,20.88
2018-04-23T06:54:58.223Z,20.84
2018-04-23T06:55:58.275Z,20.99
2018-04-23T06:56:58.182Z,20.96
2018-04-23T06:57:58.290Z,20.91
2018-04-23T06:58:58.147Z,21.04
2018-04-23T06:59:58.286Z,20.95
2018-04-23T07:00:58.111Z,20.91
2018-04-23T07:01:58.263Z,21.06
2018-04-23T07:02:58.134Z,20.91
2018-04-23T07:03:58.319Z,20.9
2018-04-23T07:04:58.545Z,21.03
2018-04-23T07:05:58.251Z,20.97
2018-04-23T07:06:58.077Z,20.95
2018-04-23T07:07:58.245Z,21.06
2018-04-23T07:08:58.216Z,20.95
2018-04-23T07:09:58.166Z,20.89
2018-04-23T07:10:58.183Z,21.09
2018-04-23T07:11:58.211Z,20.99
2018-04-23T07:12:58.246Z,20.96
2018-04-23T07:13:58.249Z,21.1
2018-04-23T07:14:58.156Z,21.05
2018-04-23T07:15:58.181Z,21.01
2018-04-23T07:16:58.276Z,21.13
2018-04-23T07:17:58.160Z,21.18
2018-04-23T07:18:58.345Z,21.16
2018-04-23T07:19:58.393Z,21.15
2018-04-23T07:20:58.347Z,21.04
2018-04-23T07:21:58.073Z,20.95
2018-04-23T07:22:58.254Z,21.11
2018-04-23T07:23:58.085Z,21.07
2018-04-23T07:24:58.192Z,21
2018-04-23T07:25:58.233Z,21.13
2018-04-23T07:26:58.056Z,21
2018-04-23T07:27:58.354Z,20.97
2018-04-23T07:28:58.265Z,21.13
2018-04-23T07:29:58.057Z,21.01
2018-04-23T07:30:58.128Z,21.03
2018-04-23T07:31:58.079Z,21.18
2018-04-23T07:32:58.029Z,21
2018-04-23T07:33:58.270Z,20.99
2018-04-23T07:34:58.258Z,21.15
2018-04-23T07:35:58.203Z,21.05
2018-04-23T07:36:58.176Z,21
2018-04-23T07:37:58.152Z,21.16
2018-04-23T07:38:58.267Z,21.07
2018-04-23T07:39:58.252Z,21.04
2018-04-23T07:40:58.145Z,21.18
2018-04-23T07:41:58.309Z,21.07
2018-04-23T07:42:58.066Z,21.07
2018-04-23T07:43:58.251Z,21.23
2018-04-23T07:44:58.316Z,21.13
2018-04-23T07:45:58.102Z,21.1
2018-04-23T07:46:58.188Z,21.26
2018-04-23T07:47:58.177Z,21.17
2018-04-23T07:49:00.428Z,21.13
2018-04-23T07:49:58.191Z,21.27
2018-04-23T07:50:58.361Z,21.17
2018-04-23T07:51:58.127Z,21.09
2018-04-23T07:52:58.300Z,21.26
2018-04-23T07:53:58.225Z,21.16
2018-04-23T07:54:57.903Z,21.12
2018-04-23T07:55:58.328Z,21.28
2018-04-23T07:56:58.232Z,21.18
2018-04-23T07:57:58.127Z,21.11
2018-04-23T07:58:58.054Z,21.28
2018-04-23T07:59:58.367Z,21.16
2018-04-23T08:00:58.148Z,21.13
2018-04-23T08:01:58.383Z,21.29
2018-04-23T08:02:58.288Z,21.17
2018-04-23T08:03:58.157Z,21.12
2018-04-23T08:04:58.099Z,21.24
2018-04-23T08:05:58.122Z,21.17
2018-04-23T08:06:58.327Z,21.13
2018-04-23T08:07:58.118Z,21.29
2018-04-23T08:08:58.261Z,21.14
2018-04-23T08:09:58.147Z,21.07
2018-04-23T08:10:58.028Z,21.27
2018-04-23T08:11:58.103Z,21.18
2018-04-23T08:12:58.183Z,21.14
2018-04-23T08:13:58.038Z,21.3
2018-04-23T08:14:58.268Z,21.18
2018-04-23T08:15:58.015Z,21.17
2018-04-23T08:16:58.149Z,21.3
2018-04-23T08:17:58.269Z,21.18
2018-04-23T08:18:58.018Z,21.13
2018-04-23T08:19:58.021Z,21.31
2018-04-23T08:20:58.161Z,21.24
2018-04-23T08:21:58.228Z,21.15
2018-04-23T08:22:58.143Z,21.29
2018-04-23T08:23:58.148Z,21.19
2018-04-23T08:24:58.202Z,21.14
2018-04-23T08:25:58.298Z,21.27
2018-04-23T08:26:58.115Z,21.18
2018-04-23T08:27:58.170Z,21.13
2018-04-23T08:28:58.400Z,21.26
2018-04-23T08:29:58.366Z,21.18
2018-04-23T08:30:58.209Z,21.1
2018-04-23T08:31:58.631Z,21.25
2018-04-23T08:32:58.228Z,21.03
2018-04-23T08:33:58.332Z,20.98
2018-04-23T08:34:58.201Z,21.18
2018-04-23T08:35:58.011Z,21.07
2018-04-23T08:36:58.185Z,21.04
2018-04-23T08:37:58.169Z,21.2
2018-04-23T08:38:58.421Z,21.1
2018-04-23T08:39:58.350Z,21
2018-04-23T08:40:58.048Z,21.16
2018-04-23T08:41:58.275Z,21.13
2018-04-23T08:42:58.115Z,21.08
2018-04-23T08:43:58.863Z,21.16
2018-04-23T08:44:58.084Z,21.01
2018-04-23T08:45:58.355Z,21.01
2018-04-23T08:46:58.101Z,21.21
2018-04-23T08:47:58.145Z,21.08
2018-04-23T08:48:58.502Z,21.06
2018-04-23T08:49:58.088Z,21.22
2018-04-23T08:50:58.030Z,21.1
2018-04-23T08:51:58.251Z,21.05
2018-04-23T08:52:58.060Z,21.24
2018-04-23T08:53:58.183Z,21.1
2018-04-23T08:54:58.178Z,21.07
2018-04-23T08:55:58.206Z,21.24
2018-04-23T08:56:58.109Z,21.15
2018-04-23T08:57:58.267Z,21.11
2018-04-23T08:58:58.110Z,21.27
2018-04-23T08:59:58.346Z,21.02
2018-04-23T09:00:58.115Z,20.98
2018-04-23T09:01:58.117Z,21.19
2018-04-23T09:02:58.202Z,21.12
2018-04-23T09:03:58.292Z,21.04
2018-04-23T09:04:58.155Z,21.23
2018-04-23T09:05:58.244Z,21.09
2018-04-23T09:06:58.198Z,21.03
2018-04-23T09:07:58.161Z,21.25
2018-04-23T09:08:58.336Z,21.09
2018-04-23T09:09:58.070Z,21.03
2018-04-23T09:10:58.174Z,21.23
2018-04-23T09:11:58.030Z,21.08
2018-04-23T09:12:58.008Z,21.09
2018-04-23T09:13:58.120Z,21.27
2018-04-23T09:14:58.253Z,21.19
2018-04-23T09:15:58.040Z,21.13
2018-04-23T09:16:58.218Z,21.28
2018-04-23T09:17:58.282Z,21.19
2018-04-23T09:18:58.036Z,21.14
2018-04-23T09:19:58.134Z,21.29
2018-04-23T09:20:58.146Z,21.17
2018-04-23T09:21:58.180Z,21.13
2018-04-23T09:22:58.130Z,21.3
2018-04-23T09:23:58.145Z,21.22
2018-04-23T09:24:58.147Z,21.15
2018-04-23T09:25:58.233Z,21.29
2018-04-23T09:26:58.276Z,21.18
2018-04-23T09:27:58.130Z,21.13
2018-04-23T09:28:58.228Z,21.29
2018-04-23T09:29:58.075Z,21.19
2018-04-23T09:30:58.138Z,21.14
2018-04-23T09:31:58.168Z,21.29
2018-04-23T09:32:58.284Z,21.19
2018-04-23T09:33:58.239Z,21.14
2018-04-23T09:34:57.859Z,21.26
2018-04-23T09:36:00.546Z,21.2
2018-04-23T09:36:58.175Z,21.16
2018-04-23T09:37:58.273Z,21.3
2018-04-23T09:38:58.510Z,21.19
2018-04-23T09:39:58.035Z,21.18
2018-04-23T09:40:58.138Z,21.3
2018-04-23T09:41:58.081Z,21.21
2018-04-23T09:42:58.347Z,21.14
2018-04-23T09:43:58.095Z,21.28
2018-04-23T09:44:58.212Z,21.19
2018-04-23T09:45:57.999Z,21.26
2018-04-23T09:46:58.125Z,21.35
2018-04-23T09:47:58.305Z,21.26
2018-04-23T09:48:58.023Z,21.17
2018-04-23T09:49:58.171Z,21.3
2018-04-23T09:50:58.245Z,21.21
2018-04-23T09:51:58.205Z,21.18
2018-04-23T09:52:58.449Z,21.3
2018-04-23T09:53:58.261Z,21.18
2018-04-23T09:54:58.172Z,21.11
2018-04-23T09:55:58.262Z,21.25
2018-04-23T09:56:58.051Z,21.18
2018-04-23T09:57:58.257Z,21.16
2018-04-23T09:58:58.161Z,21.35
2018-04-23T09:59:58.235Z,21.28
2018-04-23T10:00:58.126Z,21.18
2018-04-23T10:01:58.274Z,21.3
2018-04-23T10:03:00.816Z,21.07
2018-04-23T10:03:58.196Z,21.01
2018-04-23T10:04:58.173Z,21.22
2018-04-23T10:05:58.299Z,21.15
2018-04-23T10:06:58.278Z,21.1
2018-04-23T10:07:58.290Z,21.27
2018-04-23T10:08:58.203Z,21.19
2018-04-23T10:09:58.089Z,21.15
2018-04-23T10:10:58.261Z,21.32
2018-04-23T10:11:58.229Z,21.18
2018-04-23T10:12:58.521Z,21.12
2018-04-23T10:13:58.285Z,21.32
2018-04-23T10:14:58.185Z,21.19
2018-04-23T10:15:57.996Z,21.13
2018-04-23T10:16:58.254Z,21.3
2018-04-23T10:17:58.165Z,21.21
2018-04-23T10:18:58.195Z,21.14
2018-04-23T10:19:58.067Z,21.32
2018-04-23T10:20:58.391Z,21.18
2018-04-23T10:21:58.095Z,21.18
2018-04-23T10:22:58.157Z,21.34
2018-04-23T10:23:58.252Z,21.21
2018-04-23T10:24:58.178Z,21.24
2018-04-23T10:25:58.108Z,21.37
2018-04-23T10:26:58.196Z,21.23
2018-04-23T10:27:58.230Z,21.2
2018-04-23T10:28:58.053Z,21.32
2018-04-23T10:29:58.077Z,21.12
2018-04-23T10:30:58.213Z,21.1
2018-04-23T10:31:58.267Z,21.3
2018-04-23T10:32:58.227Z,21.24
2018-04-23T10:33:58.172Z,21.22
2018-04-23T10:34:58.050Z,21.36
2018-04-23T10:35:58.104Z,21.26
2018-04-23T10:36:58.168Z,21.26
2018-04-23T10:37:58.054Z,21.39
2018-04-23T10:38:58.514Z,21.28
2018-04-23T10:39:58.055Z,21.26
2018-04-23T10:40:58.218Z,21.42
2018-04-23T10:41:58.458Z,21.32
2018-04-23T10:42:58.207Z,21.28
2018-04-23T10:43:58.159Z,21.46
2018-04-23T10:44:57.976Z,21.3
2018-04-23T10:45:58.166Z,21.25
2018-04-23T10:46:58.106Z,21.39
2018-04-23T10:47:58.180Z,21.19
2018-04-23T10:48:58.199Z,21.21
2018-04-23T10:49:58.253Z,21.41
2018-04-23T10:50:58.378Z,21.31
2018-04-23T10:51:58.150Z,21.21
2018-04-23T10:52:58.236Z,21.35
2018-04-23T10:53:58.370Z,21.29
2018-04-23T10:54:58.366Z,21.27
2018-04-23T10:55:58.162Z,21.39
2018-04-23T10:56:58.034Z,21.3
2018-04-23T10:57:58.228Z,21.25
2018-04-23T10:58:58.036Z,21.39
2018-04-23T10:59:58.247Z,21.27
2018-04-23T11:00:58.215Z,21.25
2018-04-23T11:01:58.030Z,21.41
2018-04-23T11:02:58.275Z,21.26
2018-04-23T11:03:58.003Z,21.25
2018-04-23T11:04:58.474Z,21.37
2018-04-23T11:05:58.234Z,21.26
2018-04-23T11:06:58.060Z,21.22
2018-04-23T11:07:58.274Z,21.35
2018-04-23T11:08:57.994Z,21.25
2018-04-23T11:09:58.265Z,21.24
2018-04-23T11:10:58.128Z,21.33
2018-04-23T11:11:58.170Z,21.24
2018-04-23T11:12:58.148Z,21.36
2018-04-23T11:13:58.011Z,21.34
2018-04-23T11:14:58.366Z,21.42
2018-04-23T11:15:58.125Z,21.48
2018-04-23T11:16:58.189Z,21.41
2018-04-23T11:17:58.165Z,21.26
2018-04-23T11:18:58.293Z,21.26
2018-04-23T11:19:58.038Z,21.15
2018-04-23T11:20:58.169Z,21.15
2018-04-23T11:21:58.074Z,21.32
2018-04-23T11:22:58.142Z,21.51
2018-04-23T11:23:58.154Z,21.14
2018-04-23T11:24:57.969Z,21.07
2018-04-23T11:25:57.992Z,21.18
2018-04-23T11:26:58.114Z,21.07
2018-04-23T11:27:58.186Z,21.08
2018-04-23T11:28:58.033Z,21.24
2018-04-23T11:29:58.078Z,21.18
2018-04-23T11:30:58.170Z,21.35
2018-04-23T11:31:57.976Z,21.53
2018-04-23T11:32:58.121Z,21.39
2018-04-23T11:33:58.172Z,21.29
2018-04-23T11:34:58.120Z,21.38
2018-04-23T11:35:58.041Z,21.24
2018-04-23T11:36:58.273Z,21.23
2018-04-23T11:37:58.059Z,21.36
2018-04-23T11:38:58.073Z,21.24
2018-04-23T11:39:58.169Z,21.24
2018-04-23T11:40:58.102Z,21.38
2018-04-23T11:41:58.254Z,21.26
2018-04-23T11:42:58.512Z,21.26
2018-04-23T11:43:58.138Z,21.49
2018-04-23T11:44:58.182Z,21.32
2018-04-23T11:45:57.869Z,21.33
2018-04-23T11:46:58.104Z,21.48
2018-04-23T11:47:58.231Z,21.39
2018-04-23T11:48:58.166Z,21.52
2018-04-23T11:49:57.961Z,21.63
2018-04-23T11:50:58.215Z,21.48
2018-04-23T11:51:58.030Z,21.41
2018-04-23T11:52:58.176Z,21.57
2018-04-23T11:53:58.196Z,21.49
2018-04-23T11:54:58.157Z,21.5
2018-04-23T11:55:58.372Z,21.67
2018-04-23T11:56:58.187Z,21.58
2018-04-23T11:57:58.159Z,21.69
2018-04-23T11:58:58.213Z,21.74
2018-04-23T11:59:58.126Z,21.6
2018-04-23T12:00:58.232Z,21.48
2018-04-23T12:01:57.965Z,21.59
2018-04-23T12:02:58.148Z,21.51
2018-04-23T12:03:58.064Z,21.43
2018-04-23T12:04:58.243Z,21.36
2018-04-23T12:33:56.713Z,20.01
2018-04-23T12:34:56.512Z,19.83
2018-04-23T12:35:58.238Z,19.87
2018-04-23T12:36:58.061Z,19.98
2018-04-23T12:40:31.140Z,20.29
2018-04-23T12:41:31.143Z,20.37
2018-04-23T12:42:31.147Z,20.47
2018-04-23T12:43:31.029Z,20.63
2018-04-23T12:44:31.316Z,20.74
2018-04-23T12:45:31.157Z,20.78
2018-04-23T12:46:31.288Z,20.87
2018-04-23T12:47:31.226Z,20.99
2018-04-23T12:48:31.116Z,21.01
2018-04-23T12:49:05.735Z,21.07
2018-04-23T12:50:05.772Z,20.95
2018-04-23T12:51:06.146Z,20.94
2018-04-23T12:52:05.929Z,21.01
2018-04-23T12:53:06.015Z,20.98
2018-04-23T12:54:06.166Z,20.85
2018-04-23T12:55:06.056Z,20.95
2018-04-23T12:56:05.897Z,21.05
2018-04-23T12:57:05.958Z,20.95
2018-04-23T12:58:05.739Z,20.95
2018-04-23T12:59:06.078Z,21.08
2018-04-23T13:00:05.864Z,21
2018-04-23T13:01:05.919Z,21.05
2018-04-23T13:02:05.729Z,21.14
2018-04-23T13:03:05.739Z,21.05
2018-04-23T13:04:06.017Z,21.07
2018-04-23T13:05:05.795Z,21.18
2018-04-23T13:06:06.162Z,21.06
2018-04-23T13:07:06.014Z,21.1
2018-04-23T13:08:05.992Z,21.21
2018-04-23T13:09:06.088Z,21.1
2018-04-23T13:10:06.092Z,21.13
2018-04-23T13:11:05.806Z,21.22
2018-04-23T13:12:05.740Z,21.1
2018-04-23T13:13:05.881Z,21.17
2018-04-23T13:14:06.061Z,21.26
2018-04-23T13:15:05.797Z,21.11
2018-04-23T13:16:05.931Z,21.16
2018-04-23T13:17:05.939Z,21.25
2018-04-23T13:18:05.718Z,21.11
2018-04-23T13:19:06.041Z,21.14
2018-04-23T13:20:06.007Z,21.26
2018-04-23T13:21:05.718Z,21.14
2018-04-23T13:22:05.931Z,21.18
2018-04-23T13:23:06.043Z,21.25
2018-04-23T13:24:05.936Z,21.18
2018-04-23T13:25:06.058Z,21.18
2018-04-23T13:26:05.877Z,21.24